NWWW METAR and TAF weather

Enter ICAO airport designator
Station Type Date Time Source
NWWW METAR 2021/06/24 06:00 UTC NOAA

NWWW 240600Z AUTO 13009KT 9999 FEW060 21/14 Q1019 NOSIG


Station Type Date Time Source
NWWW Decoded METAR 2021/06/24 06:00 UTC NOAA

La Tontouta Nlle-Caledonie , New Caledonia (NWWW) 22-01S 166-13E 14M
Jun 24, 2021 - 02:00 AM EDT / 2021.06.24 0600 UTC
Wind: from the SE (130 degrees) at 10 MPH (9 KT):0
Visibility: greater than 7 mile(s):0
Sky conditions: mostly clear
Temperature: 69 F (21 C)
Dew Point: 57 F (14 C)
Relative Humidity: 64%
Pressure (altimeter): 30.09 in. Hg (1019 hPa)
ob: NWWW 240600Z AUTO 13009KT 9999 FEW060 21/14 Q1019 NOSIG
cycle: 6

Station Type Date Time Source
NWWW TAF 2021/06/24 06:00 UTC NOAA

TAF NWWW 240500Z 2406/2506 14014KT 9999 SCT060
BECMG 2407/2409 VRB02KT

Example: see airport list